Altona, NY (12910)

6:48 AM EDT on September 25, 2016 (GMT -0400)
North Eastern NY | | Change Station
Active Advisory: Frost Advisory

Elev 344 ft 44.96 °N, 73.64 °W | Updated 23 seconds ago

Clear
Clear
40.7 °F
Feels Like 38 °F
N
4.0
Wind Variable Wind from WSW

Today
High -- | Low -- °F
--% Chance of Precip.
Yesterday
High -- | Low -- °F
Precip. -- in
Pressure 30.20 in
Visibility 10.0 miles
Clouds Clear
Windchill 38 °F
Dew Point 38 °F
Humidity 90%
Rainfall 0.00 in
Snow Depth Not available.
6:46 AM 6:45 PM
Waning Crescent, 29% visible
METAR KPBG 250953Z AUTO 26004KT 10SM CLR 07/02 A3019 RMK AO2 SLP226 T00670022
Pressure 30.20 in
Visibility 10.0 miles
Clouds Clear
Windchill 38 °F
Dew Point 38 °F
Humidity 90%
Rainfall 0.00 in
Snow Depth Not available.
6:46 AM 6:45 PM
Waning Crescent, 29% visible
METAR KPBG 250953Z AUTO 26004KT 10SM CLR 07/02 A3019 RMK AO2 SLP226 T00670022

10-Day Weather Forecast

Almanac

Astronomy

Sep. 25, 2016 Rise Set
Actual Time
Civil Twilight
Nautical Twilight
Astronomical Twilight
Moon
Length of Visible Light
Length of Day
Tomorrow will be .
, % of the Moon is Illuminated

Today's Extremes

State Highs State Lows

Community

WunderPhotos

Upload Photos

1,941,570 photos uploaded!

WunderBlog® & News

Nearby

Air Quality

  Air Quality AQ Index Pollutant
Not available.

Snow Depth

Station Depth Elevation

Earthquake Activity

City Distance Mag. Time & Date
Minimum magnitude displayed is 2.5.

Coastal Water Temperatures

Place Temperature

Stations

Nearby Weather Stations

Station Location Temp. Windchill Dew Point Humidity Wind Precip. Elev Updated Type
                   

Watches & Warnings

Frost Advisory
Issued: 10:16 PM EDT Sep. 24, 2016 – National Weather Service

... Frost advisory remains in effect from 2 am to 8 am EDT
Sunday...

The National Weather Service in Burlington continues the frost
advisory... from 2 am to 8 am EDT Sunday.

* Locations... northern New York away from the Champlain Valley.
Central... south-central... and eastern Vermont.

* Hazards... areas of frost.

* Temperatures... lows in the mid 30s.

* Timing... areas of frost will begin to develop after midnight
tonight... and be most widespread around sunrise Sunday morning.

* Impacts... outdoor vegetation sensitive to cold temperatures
may be killed if left uncovered.

Precautionary/preparedness actions...

Please stay tuned to NOAA Weather Radio... your local media... or
go to www.Weather.Gov/Burlington for further updates on this
weather situation.